Big Sandy, Montana
Current Conditions -  °F | °C
As of 3:53 AM on Sunday 23 Nov 2014 (Local Time) from KHVR Reporting Station
Overcast Overcast  
Wind Chill: -6°   Ceiling: 6000
Heat Index:   Visibility: 10mi
Dew Point: -4°   Wind: 20mph
Humidity: 72%   Direction: 290°WNW
Pressure: 29.76"   Gusts: 26mph
Location:  48.18°N, 110.11°W
Report Text: KHVR 231053Z AUTO 29017G23KT 10SM OVC060 01/M04 A2976 RMK AO2 PK WND 29026/1004 SLP096 T00061039
Loading
Personal Weather Stations






























Interactive Weather Map New forecast layout! Learn more

10-Day Weather Forecast

Advertisements
Track Severe Weather on mobile